Time;durP1;ratioP1;P1;durP2;ratioP2;P2;SDS_P1;SDS_P2;PMS_P1;PMS_P2;Temp;Humidity;BMP_temperature;BMP_pressure;BME280_temperature;BME280_humidity;BME280_pressure;Samples;Min_cycle;Max_cycle;Signal;HPM_P1;HPM_P2
2022/12/11 00:02:11;;;;;;;190.60;27.27;;;;;;;;;;5050048;28;20052;-72
2022/12/11 00:04:38;;;;;;;201.50;28.90;;;;;;;;;;5066775;28;20160;-71
2022/12/11 00:07:07;;;;;;;183.60;29.25;;;;;;;;;;5040769;28;20057;-71
2022/12/11 00:09:34;;;;;;;180.95;27.50;;;;;;;;;;5062498;28;20419;-72
2022/12/11 00:12:02;;;;;;;163.10;26.15;;;;;;;;;;5065813;28;20052;-72
2022/12/11 00:14:29;;;;;;;140.55;25.58;;;;;;;;;;5051200;28;20439;-72
2022/12/11 00:16:57;;;;;;;149.10;26.35;;;;;;;;;;5067237;28;20047;-72
2022/12/11 00:19:24;;;;;;;187.32;26.73;;;;;;;;;;5070150;28;20087;-72
2022/12/11 00:21:51;;;;;;;168.55;28.90;;;;;;;;;;5068650;28;20060;-72
2022/12/11 00:24:20;;;;;;;156.43;28.33;;;;;;;;;;5068202;28;20139;-72
2022/12/11 00:26:47;;;;;;;145.63;27.52;;;;;;;;;;5048380;28;20524;-72
2022/12/11 00:29:14;;;;;;;178.43;29.48;;;;;;;;;;5065400;28;20051;-72
2022/12/11 00:31:42;;;;;;;174.80;28.90;;;;;;;;;;5065052;28;20134;-72
2022/12/11 00:34:10;;;;;;;155.52;27.90;;;;;;;;;;5065095;28;20045;-72
2022/12/11 00:36:38;;;;;;;152.82;27.05;;;;;;;;;;5066760;28;20063;-72
2022/12/11 00:39:06;;;;;;;141.50;26.27;;;;;;;;;;5043792;28;20152;-72
2022/12/11 00:41:34;;;;;;;157.25;27.63;;;;;;;;;;5070800;28;20503;-72
2022/12/11 00:44:02;;;;;;;145.38;26.35;;;;;;;;;;5068508;28;20053;-72
2022/12/11 00:46:29;;;;;;;140.63;26.85;;;;;;;;;;5063346;28;20054;-72
2022/12/11 00:48:57;;;;;;;146.75;27.73;;;;;;;;;;5068731;28;20056;-72
2022/12/11 00:51:24;;;;;;;149.40;26.83;;;;;;;;;;5045512;28;20056;-72
2022/12/11 00:53:52;;;;;;;145.05;27.40;;;;;;;;;;5069282;28;20853;-72
2022/12/11 00:56:20;;;;;;;148.88;27.48;;;;;;;;;;5050307;28;20052;-72
2022/12/11 00:58:49;;;;;;;133.77;26.48;;;;;;;;;;5062972;28;20039;-72
2022/12/11 01:01:18;;;;;;;142.88;27.73;;;;;;;;;;5065353;28;20052;-71
2022/12/11 01:03:45;;;;;;;140.50;26.88;;;;;;;;;;5057757;28;21101;-72
2022/12/11 01:06:14;;;;;;;129.80;26.35;;;;;;;;;;5059750;28;20055;-72
2022/12/11 01:08:42;;;;;;;125.95;25.83;;;;;;;;;;5063428;28;20135;-72
2022/12/11 01:11:09;;;;;;;129.07;26.33;;;;;;;;;;5067023;28;20054;-72
2022/12/11 01:13:37;;;;;;;130.40;25.98;;;;;;;;;;5052148;28;20053;-72
2022/12/11 01:16:08;;;;;;;130.50;26.65;;;;;;;;;;5048554;28;20060;-72
2022/12/11 01:18:36;;;;;;;135.45;26.42;;;;;;;;;;5056758;28;20056;-72
2022/12/11 01:21:06;;;;;;;120.75;26.50;;;;;;;;;;5069131;28;20115;-73
2022/12/11 01:23:33;;;;;;;129.70;27.48;;;;;;;;;;5066672;28;20064;-72
2022/12/11 01:26:05;;;;;;;133.63;28.17;;;;;;;;;;5074906;28;20127;-72
2022/12/11 01:28:32;;;;;;;125.30;26.55;;;;;;;;;;5071781;28;20053;-72
2022/12/11 01:30:59;;;;;;;127.38;26.17;;;;;;;;;;5073690;28;20047;-72
2022/12/11 01:33:28;;;;;;;131.20;27.08;;;;;;;;;;5070023;28;20040;-72
2022/12/11 01:35:55;;;;;;;141.80;29.10;;;;;;;;;;5052406;28;20057;-72
2022/12/11 01:38:23;;;;;;;139.05;28.27;;;;;;;;;;5059743;28;20075;-71
2022/12/11 01:40:51;;;;;;;138.63;26.85;;;;;;;;;;5075465;28;20048;-71
2022/12/11 01:43:18;;;;;;;126.18;25.98;;;;;;;;;;5073164;28;20056;-72
2022/12/11 01:45:46;;;;;;;120.22;27.17;;;;;;;;;;5071940;28;20498;-72
2022/12/11 01:48:16;;;;;;;136.70;26.98;;;;;;;;;;5048592;28;20068;-72
2022/12/11 01:50:48;;;;;;;132.55;27.98;;;;;;;;;;5050262;28;20055;-72
2022/12/11 01:53:18;;;;;;;119.30;25.55;;;;;;;;;;5065504;28;20383;-72
2022/12/11 01:55:47;;;;;;;116.38;24.92;;;;;;;;;;5061874;28;20048;-72
2022/12/11 01:58:15;;;;;;;117.28;25.08;;;;;;;;;;5044408;28;20052;-72
2022/12/11 02:00:42;;;;;;;128.57;25.70;;;;;;;;;;5069621;28;20048;-71
2022/12/11 02:03:10;;;;;;;125.88;27.60;;;;;;;;;;5053811;28;20062;-72
2022/12/11 02:05:37;;;;;;;118.68;26.52;;;;;;;;;;5043643;28;20071;-72
2022/12/11 02:08:08;;;;;;;115.63;26.20;;;;;;;;;;5053603;28;20129;-71
2022/12/11 02:10:44;;;;;;;121.88;26.25;;;;;;;;;;5034510;28;20049;-72
2022/12/11 02:13:13;;;;;;;127.70;27.67;;;;;;;;;;5066034;28;20750;-72
2022/12/11 02:15:45;;;;;;;122.90;26.48;;;;;;;;;;5074068;28;20044;-71
2022/12/11 02:18:16;;;;;;;131.85;28.10;;;;;;;;;;5067365;28;20048;-72
2022/12/11 02:20:48;;;;;;;133.63;28.48;;;;;;;;;;5052809;28;20586;-72
2022/12/11 02:23:45;;;;;;;119.15;27.08;;;;;;;;;;5049896;28;20048;-72
2022/12/11 02:26:22;;;;;;;124.55;26.23;;;;;;;;;;5051080;28;20079;-71
2022/12/11 02:28:52;;;;;;;108.72;27.48;;;;;;;;;;5059949;28;20053;-72
2022/12/11 02:31:22;;;;;;;122.47;28.10;;;;;;;;;;5069131;28;20410;-72
2022/12/11 02:33:51;;;;;;;101.55;25.33;;;;;;;;;;5049864;28;20072;-72
2022/12/11 02:36:19;;;;;;;100.40;25.98;;;;;;;;;;5065137;28;20474;-72
2022/12/11 02:38:49;;;;;;;108.28;26.50;;;;;;;;;;5048388;28;20064;-72
2022/12/11 02:41:18;;;;;;;98.57;27.20;;;;;;;;;;5053175;28;20079;-72
2022/12/11 02:43:48;;;;;;;100.90;27.20;;;;;;;;;;5056244;28;20061;-72
2022/12/11 02:46:18;;;;;;;92.50;25.48;;;;;;;;;;5025576;28;20083;-72
2022/12/11 02:48:46;;;;;;;93.95;25.90;;;;;;;;;;5029846;28;20052;-72
2022/12/11 02:51:14;;;;;;;100.13;24.35;;;;;;;;;;5031007;28;20059;-72
2022/12/11 02:53:43;;;;;;;95.93;25.40;;;;;;;;;;5030007;28;20057;-72
2022/12/11 02:56:12;;;;;;;86.53;25.08;;;;;;;;;;5048149;28;20049;-72
2022/12/11 02:58:40;;;;;;;114.75;27.83;;;;;;;;;;5028473;28;20056;-72
2022/12/11 03:01:07;;;;;;;120.07;27.35;;;;;;;;;;5030685;28;20563;-72
2022/12/11 03:03:36;;;;;;;97.90;27.63;;;;;;;;;;5042221;28;20053;-72
2022/12/11 03:06:03;;;;;;;96.82;25.77;;;;;;;;;;5044657;28;20518;-72
2022/12/11 03:08:31;;;;;;;110.00;27.92;;;;;;;;;;5035292;28;20445;-72
2022/12/11 03:10:58;;;;;;;95.68;26.60;;;;;;;;;;5048314;28;20041;-72
2022/12/11 03:13:25;;;;;;;97.03;27.02;;;;;;;;;;5052335;28;20072;-72
2022/12/11 03:16:00;;;;;;;108.28;27.52;;;;;;;;;;5033607;28;20542;-72
2022/12/11 03:18:31;;;;;;;108.85;27.90;;;;;;;;;;5026352;28;20048;-72
2022/12/11 03:21:03;;;;;;;107.60;29.42;;;;;;;;;;5029942;28;20568;-71
2022/12/11 03:23:32;;;;;;;121.35;28.55;;;;;;;;;;5044685;28;20057;-71
2022/12/11 03:26:01;;;;;;;111.80;29.95;;;;;;;;;;5027464;28;20053;-72
2022/12/11 03:28:31;;;;;;;107.38;28.02;;;;;;;;;;5046140;28;20052;-71
2022/12/11 03:30:58;;;;;;;101.53;27.90;;;;;;;;;;5028034;28;20045;-72
2022/12/11 03:33:27;;;;;;;106.22;28.40;;;;;;;;;;5027040;28;20056;-71
2022/12/11 03:35:56;;;;;;;111.40;28.65;;;;;;;;;;5047889;28;20041;-71
2022/12/11 03:38:26;;;;;;;123.97;28.58;;;;;;;;;;5044479;28;20078;-72
2022/12/11 03:40:55;;;;;;;118.32;28.30;;;;;;;;;;5043233;28;20048;-73
2022/12/11 03:43:23;;;;;;;124.20;28.85;;;;;;;;;;5045723;28;20052;-72
2022/12/11 03:45:52;;;;;;;128.98;29.90;;;;;;;;;;5026222;28;20352;-71
2022/12/11 03:48:21;;;;;;;111.80;27.80;;;;;;;;;;5028196;28;20487;-72
2022/12/11 03:50:49;;;;;;;126.72;30.13;;;;;;;;;;5044146;28;20048;-72
2022/12/11 03:53:17;;;;;;;137.77;29.58;;;;;;;;;;5026212;28;20040;-71
2022/12/11 03:55:47;;;;;;;138.00;30.02;;;;;;;;;;5045339;28;20045;-71
2022/12/11 03:58:14;;;;;;;152.05;30.55;;;;;;;;;;5026786;28;20077;-72
2022/12/11 04:00:41;;;;;;;142.43;31.92;;;;;;;;;;5045001;28;20549;-72
2022/12/11 04:03:15;;;;;;;158.75;30.92;;;;;;;;;;5031426;28;20523;-72
2022/12/11 04:05:43;;;;;;;133.85;29.48;;;;;;;;;;5048009;28;20075;-72
2022/12/11 04:08:10;;;;;;;145.45;31.55;;;;;;;;;;5047135;28;20041;-72
2022/12/11 04:10:38;;;;;;;137.65;31.80;;;;;;;;;;5046744;28;20471;-72
2022/12/11 04:13:06;;;;;;;154.73;31.23;;;;;;;;;;5047340;28;20044;-72
2022/12/11 04:15:33;;;;;;;149.43;32.85;;;;;;;;;;5033121;28;20079;-72
2022/12/11 04:26:16;;;;;;;171.32;32.25;;;;;;;;;;5045555;28;20622;-71
2022/12/11 04:28:45;;;;;;;146.60;31.67;;;;;;;;;;5043804;28;20053;-72
2022/12/11 04:31:13;;;;;;;156.93;32.55;;;;;;;;;;5048843;28;20045;-72
2022/12/11 04:33:40;;;;;;;171.65;31.98;;;;;;;;;;5046763;28;20785;-72
2022/12/11 04:36:08;;;;;;;147.77;32.17;;;;;;;;;;5048813;28;20080;-72
2022/12/11 04:38:35;;;;;;;153.27;32.17;;;;;;;;;;5031776;28;20072;-72
2022/12/11 04:41:04;;;;;;;144.30;29.92;;;;;;;;;;5049646;28;20423;-72
2022/12/11 04:43:31;;;;;;;161.32;31.17;;;;;;;;;;5062705;28;20075;-72
2022/12/11 04:46:03;;;;;;;159.07;32.05;;;;;;;;;;5068969;28;20521;-72
2022/12/11 04:48:30;;;;;;;152.93;33.50;;;;;;;;;;5065320;28;20052;-72
2022/12/11 04:50:57;;;;;;;149.15;29.50;;;;;;;;;;5064288;28;20049;-72
2022/12/11 04:53:25;;;;;;;157.13;32.05;;;;;;;;;;5064985;28;20056;-72
2022/12/11 04:55:52;;;;;;;172.27;31.48;;;;;;;;;;5071878;28;20155;-71
2022/12/11 04:58:19;;;;;;;153.68;32.63;;;;;;;;;;5046240;28;20064;-72
2022/12/11 05:00:46;;;;;;;175.43;33.67;;;;;;;;;;5077999;28;20047;-72
2022/12/11 05:03:15;;;;;;;150.73;31.20;;;;;;;;;;5053144;28;20496;-72
2022/12/11 05:05:47;;;;;;;152.77;30.35;;;;;;;;;;5063123;28;20403;-72
2022/12/11 05:08:15;;;;;;;150.20;30.58;;;;;;;;;;5065808;28;20048;-72
2022/12/11 05:10:42;;;;;;;157.10;32.67;;;;;;;;;;5051638;28;20158;-72
2022/12/11 05:13:09;;;;;;;155.00;30.83;;;;;;;;;;5050307;28;20080;-72
2022/12/11 05:15:39;;;;;;;170.30;30.90;;;;;;;;;;5058211;28;20059;-73
2022/12/11 05:18:06;;;;;;;153.32;32.75;;;;;;;;;;5045200;28;20063;-72
2022/12/11 05:20:35;;;;;;;155.15;31.52;;;;;;;;;;5051862;28;20747;-72
2022/12/11 05:23:02;;;;;;;151.57;31.70;;;;;;;;;;5049390;28;20041;-72
2022/12/11 05:25:29;;;;;;;152.40;30.27;;;;;;;;;;5064705;28;20078;-72
2022/12/11 05:27:56;;;;;;;148.52;31.15;;;;;;;;;;5050095;28;20057;-72
2022/12/11 05:30:23;;;;;;;141.50;30.45;;;;;;;;;;5066889;28;20162;-72
2022/12/11 05:32:51;;;;;;;151.40;30.92;;;;;;;;;;5046323;28;20048;-72
2022/12/11 05:35:18;;;;;;;141.70;28.88;;;;;;;;;;5065598;28;20522;-72
2022/12/11 05:37:47;;;;;;;133.82;28.63;;;;;;;;;;5063089;28;20491;-72
2022/12/11 05:40:14;;;;;;;141.20;29.60;;;;;;;;;;5061819;28;20503;-72
2022/12/11 05:42:42;;;;;;;134.23;29.23;;;;;;;;;;5046258;28;20053;-72
2022/12/11 05:45:09;;;;;;;152.30;31.55;;;;;;;;;;5065568;28;20052;-72
2022/12/11 05:47:36;;;;;;;161.65;31.00;;;;;;;;;;5062639;28;20733;-72
2022/12/11 05:50:07;;;;;;;126.00;28.67;;;;;;;;;;5035801;28;20087;-72
2022/12/11 05:52:34;;;;;;;125.40;28.65;;;;;;;;;;5068509;28;20051;-72
2022/12/11 05:55:03;;;;;;;140.30;29.75;;;;;;;;;;5066490;28;20052;-72
2022/12/11 05:57:30;;;;;;;128.13;31.33;;;;;;;;;;5035189;28;20057;-72
2022/12/11 05:59:57;;;;;;;141.32;30.25;;;;;;;;;;5056899;28;20438;-72
2022/12/11 06:02:24;;;;;;;130.43;30.40;;;;;;;;;;5071066;28;20044;-72
2022/12/11 06:04:51;;;;;;;147.95;30.08;;;;;;;;;;5059682;28;20050;-73
2022/12/11 06:07:19;;;;;;;124.93;30.55;;;;;;;;;;5047328;28;20109;-73
2022/12/11 06:09:46;;;;;;;122.65;29.75;;;;;;;;;;5047102;28;20056;-73
2022/12/11 06:12:15;;;;;;;133.88;29.33;;;;;;;;;;5049065;28;20739;-73
2022/12/11 06:14:42;;;;;;;130.35;29.13;;;;;;;;;;5050788;28;20487;-73
2022/12/11 06:17:09;;;;;;;130.93;29.38;;;;;;;;;;5047595;28;20057;-73
2022/12/11 06:19:39;;;;;;;128.25;29.20;;;;;;;;;;5046923;28;20131;-74
2022/12/11 06:22:07;;;;;;;132.88;28.48;;;;;;;;;;5053451;28;20045;-74
2022/12/11 06:24:34;;;;;;;114.15;27.98;;;;;;;;;;5056415;28;20133;-73
2022/12/11 06:27:02;;;;;;;128.13;26.85;;;;;;;;;;5070765;28;20146;-73
2022/12/11 06:29:30;;;;;;;118.68;28.10;;;;;;;;;;5054467;28;20063;-73
2022/12/11 06:31:57;;;;;;;102.60;26.33;;;;;;;;;;5047657;28;20048;-73
2022/12/11 06:34:25;;;;;;;118.53;28.17;;;;;;;;;;5048891;28;20055;-73
2022/12/11 06:36:52;;;;;;;115.57;27.38;;;;;;;;;;5043995;28;20699;-73
2022/12/11 06:39:19;;;;;;;124.38;29.00;;;;;;;;;;5047748;28;20044;-73
2022/12/11 06:41:47;;;;;;;118.50;28.42;;;;;;;;;;5041657;28;20044;-73
2022/12/11 06:44:14;;;;;;;125.57;29.15;;;;;;;;;;5046685;28;20644;-73
2022/12/11 06:46:43;;;;;;;114.03;26.75;;;;;;;;;;5041565;28;20052;-73
2022/12/11 06:49:10;;;;;;;120.25;29.15;;;;;;;;;;5061563;28;20805;-73
2022/12/11 06:51:37;;;;;;;139.63;29.02;;;;;;;;;;5048615;28;20052;-74
2022/12/11 06:54:04;;;;;;;119.43;27.92;;;;;;;;;;5061094;28;20134;-73
2022/12/11 06:56:32;;;;;;;129.65;29.08;;;;;;;;;;5043436;28;20056;-73
2022/12/11 06:58:59;;;;;;;127.90;28.48;;;;;;;;;;5051000;28;20059;-73
2022/12/11 07:01:27;;;;;;;110.22;26.98;;;;;;;;;;5048595;28;20798;-73
2022/12/11 07:03:56;;;;;;;118.05;27.15;;;;;;;;;;5040753;28;20063;-73
2022/12/11 07:06:24;;;;;;;116.43;28.23;;;;;;;;;;5048507;28;20048;-74
2022/12/11 07:08:51;;;;;;;99.13;24.70;;;;;;;;;;5047162;28;20115;-73
2022/12/11 07:11:20;;;;;;;106.90;26.60;;;;;;;;;;5042300;28;20052;-73
2022/12/11 07:13:47;;;;;;;110.32;25.98;;;;;;;;;;5050020;28;20415;-73
2022/12/11 07:16:15;;;;;;;107.00;26.98;;;;;;;;;;5053468;28;20063;-73
2022/12/11 07:18:43;;;;;;;116.82;28.23;;;;;;;;;;5066985;28;20052;-73
2022/12/11 07:21:12;;;;;;;111.43;26.92;;;;;;;;;;5045685;28;20052;-73
2022/12/11 07:23:40;;;;;;;107.55;26.50;;;;;;;;;;5066512;28;20063;-73
2022/12/11 07:26:08;;;;;;;118.03;28.27;;;;;;;;;;5052243;28;20057;-74
2022/12/11 07:28:35;;;;;;;111.70;28.90;;;;;;;;;;5049948;28;20053;-73
2022/12/11 07:31:05;;;;;;;114.95;27.50;;;;;;;;;;5040629;28;20056;-73
2022/12/11 07:33:32;;;;;;;105.90;28.00;;;;;;;;;;5041197;28;20420;-73
2022/12/11 07:36:01;;;;;;;104.93;26.83;;;;;;;;;;5040833;28;20053;-73
2022/12/11 07:38:31;;;;;;;109.70;28.00;;;;;;;;;;5048897;28;20064;-73
2022/12/11 07:41:01;;;;;;;126.85;27.92;;;;;;;;;;5044316;28;20052;-73
2022/12/11 07:43:28;;;;;;;103.93;28.48;;;;;;;;;;5037586;28;20057;-73
2022/12/11 07:45:56;;;;;;;105.88;26.30;;;;;;;;;;5038870;28;20801;-73
2022/12/11 07:48:23;;;;;;;110.38;27.70;;;;;;;;;;5043088;28;20377;-73
2022/12/11 07:50:50;;;;;;;114.22;28.85;;;;;;;;;;5039667;28;20053;-73
2022/12/11 07:53:17;;;;;;;107.68;26.60;;;;;;;;;;5042589;28;20041;-73
2022/12/11 07:55:46;;;;;;;110.53;28.88;;;;;;;;;;5042770;28;20552;-73
2022/12/11 07:58:13;;;;;;;104.30;27.08;;;;;;;;;;5048016;28;20048;-73
2022/12/11 08:00:40;;;;;;;109.28;26.48;;;;;;;;;;5048316;28;20423;-74
2022/12/11 08:03:08;;;;;;;108.32;28.35;;;;;;;;;;5038698;28;20053;-73
2022/12/11 08:05:35;;;;;;;114.78;29.42;;;;;;;;;;5042608;28;20412;-74
2022/12/11 08:08:02;;;;;;;114.60;28.10;;;;;;;;;;5039148;28;20052;-73
2022/12/11 08:10:29;;;;;;;124.55;29.30;;;;;;;;;;5042694;28;20053;-73
2022/12/11 08:12:58;;;;;;;109.00;27.73;;;;;;;;;;5043103;28;20049;-73
2022/12/11 08:15:25;;;;;;;111.80;28.67;;;;;;;;;;5036832;28;20056;-73
2022/12/11 08:17:52;;;;;;;107.93;28.67;;;;;;;;;;5038854;28;20049;-74
2022/12/11 08:20:20;;;;;;;106.78;27.15;;;;;;;;;;5038291;28;20582;-73
2022/12/11 08:22:49;;;;;;;109.88;27.95;;;;;;;;;;5043593;28;20048;-73
2022/12/11 08:25:16;;;;;;;113.45;29.55;;;;;;;;;;5043518;28;20050;-73
2022/12/11 08:27:44;;;;;;;103.18;27.67;;;;;;;;;;5031513;28;20061;-73
2022/12/11 08:30:13;;;;;;;114.45;29.98;;;;;;;;;;5038505;28;20045;-73
2022/12/11 08:32:40;;;;;;;123.25;29.42;;;;;;;;;;5044261;28;20056;-73
2022/12/11 08:35:08;;;;;;;112.22;28.90;;;;;;;;;;5046711;28;20049;-73
2022/12/11 08:37:35;;;;;;;102.25;27.45;;;;;;;;;;5035701;28;20045;-74
2022/12/11 08:40:03;;;;;;;107.07;28.13;;;;;;;;;;5034070;28;20053;-73
2022/12/11 08:42:30;;;;;;;89.20;25.48;;;;;;;;;;5042481;28;20133;-73
2022/12/11 08:44:57;;;;;;;109.82;28.08;;;;;;;;;;5030494;28;20424;-73
2022/12/11 08:47:26;;;;;;;103.55;27.55;;;;;;;;;;5029753;28;20408;-73
2022/12/11 08:49:53;;;;;;;102.60;27.38;;;;;;;;;;5028316;28;20056;-73
2022/12/11 08:52:20;;;;;;;97.05;26.70;;;;;;;;;;5029743;28;20052;-72
2022/12/11 08:54:47;;;;;;;111.65;28.60;;;;;;;;;;5030498;28;20063;-73
2022/12/11 08:57:15;;;;;;;99.53;27.88;;;;;;;;;;5027751;28;20079;-73
2022/12/11 08:59:42;;;;;;;105.65;28.48;;;;;;;;;;5046434;28;20703;-72
2022/12/11 09:02:11;;;;;;;95.60;26.80;;;;;;;;;;5028887;28;20057;-73
2022/12/11 09:04:40;;;;;;;100.50;28.35;;;;;;;;;;5046944;28;20111;-73
2022/12/11 09:07:07;;;;;;;99.55;27.50;;;;;;;;;;5031891;28;20060;-73
2022/12/11 09:09:35;;;;;;;105.47;28.15;;;;;;;;;;5033557;28;20067;-74
2022/12/11 09:12:03;;;;;;;106.60;27.60;;;;;;;;;;5030939;28;20156;-73
2022/12/11 09:14:30;;;;;;;91.65;26.75;;;;;;;;;;5032883;28;20471;-72
2022/12/11 09:16:57;;;;;;;87.05;26.05;;;;;;;;;;5031836;28;20056;-73
2022/12/11 09:19:25;;;;;;;90.43;26.45;;;;;;;;;;5044740;28;20498;-73
2022/12/11 09:21:53;;;;;;;98.75;27.63;;;;;;;;;;5047678;28;20045;-73
2022/12/11 09:24:21;;;;;;;89.70;26.92;;;;;;;;;;5045676;28;20052;-72
2022/12/11 09:26:48;;;;;;;85.28;26.38;;;;;;;;;;5047267;28;20510;-73
2022/12/11 09:29:15;;;;;;;84.85;27.05;;;;;;;;;;5048370;28;20048;-73
2022/12/11 09:31:42;;;;;;;88.97;26.92;;;;;;;;;;5041748;28;20045;-73
2022/12/11 09:34:12;;;;;;;89.95;26.77;;;;;;;;;;5044578;28;20527;-72
2022/12/11 09:36:39;;;;;;;83.65;25.75;;;;;;;;;;5046900;28;20055;-74
2022/12/11 09:39:09;;;;;;;82.13;25.48;;;;;;;;;;5026221;28;20049;-72
2022/12/11 09:41:37;;;;;;;80.38;26.70;;;;;;;;;;5033318;28;20048;-73
2022/12/11 09:44:20;;;;;;;84.43;26.55;;;;;;;;;;5035439;28;20601;-73
2022/12/11 09:46:47;;;;;;;81.60;27.08;;;;;;;;;;5043773;28;20052;-73
2022/12/11 09:49:21;;;;;;;86.60;27.08;;;;;;;;;;5050468;28;20112;-72
2022/12/11 09:51:51;;;;;;;82.38;26.52;;;;;;;;;;5047017;28;20060;-72
2022/12/11 09:54:20;;;;;;;78.60;26.08;;;;;;;;;;5047970;28;20052;-73
2022/12/11 09:56:51;;;;;;;83.50;26.45;;;;;;;;;;5039666;28;20053;-72
2022/12/11 09:59:21;;;;;;;85.35;26.33;;;;;;;;;;5071184;28;20056;-73
2022/12/11 10:01:51;;;;;;;73.53;23.08;;;;;;;;;;5047626;28;20160;-73
2022/12/11 10:04:36;;;;;;;66.90;23.73;;;;;;;;;;5049905;28;20052;-72
2022/12/11 10:07:07;;;;;;;70.38;23.38;;;;;;;;;;5065791;28;20056;-73
2022/12/11 10:09:39;;;;;;;71.78;25.10;;;;;;;;;;5048673;28;20055;-74
2022/12/11 10:12:15;;;;;;;72.50;23.95;;;;;;;;;;5072602;28;20051;-73
2022/12/11 10:14:48;;;;;;;69.38;23.08;;;;;;;;;;5056357;28;20691;-73
2022/12/11 10:17:19;;;;;;;67.80;23.20;;;;;;;;;;5051293;28;20075;-73
2022/12/11 10:19:47;;;;;;;70.15;22.92;;;;;;;;;;5045661;28;20060;-73
2022/12/11 10:22:17;;;;;;;64.85;23.20;;;;;;;;;;5054360;28;20101;-73
2022/12/11 10:24:51;;;;;;;58.42;22.30;;;;;;;;;;5049822;28;20129;-73
2022/12/11 10:27:20;;;;;;;58.08;23.23;;;;;;;;;;5042385;28;20056;-72
2022/12/11 10:29:48;;;;;;;54.53;21.60;;;;;;;;;;5047325;28;20139;-72
2022/12/11 10:32:23;;;;;;;62.72;22.77;;;;;;;;;;5047340;28;20056;-73
2022/12/11 10:34:52;;;;;;;54.33;20.85;;;;;;;;;;5039168;28;20092;-73
2022/12/11 10:37:19;;;;;;;48.75;21.20;;;;;;;;;;5063342;28;20043;-74
2022/12/11 10:39:49;;;;;;;48.70;20.45;;;;;;;;;;5060876;28;20052;-73
2022/12/11 10:42:18;;;;;;;46.40;20.23;;;;;;;;;;5048957;28;20048;-73
2022/12/11 10:44:56;;;;;;;44.38;20.85;;;;;;;;;;5039990;28;20049;-73
2022/12/11 10:47:23;;;;;;;50.65;20.27;;;;;;;;;;5038735;28;20114;-72
2022/12/11 10:49:53;;;;;;;47.70;20.60;;;;;;;;;;5039465;28;20061;-73
2022/12/11 10:52:21;;;;;;;49.88;20.90;;;;;;;;;;5036768;28;20053;-73
2022/12/11 10:54:55;;;;;;;47.17;20.45;;;;;;;;;;5038127;28;20041;-73
2022/12/11 10:57:27;;;;;;;49.35;20.92;;;;;;;;;;5036736;28;20701;-73
2022/12/11 10:59:54;;;;;;;48.70;20.10;;;;;;;;;;5044918;28;20421;-73
2022/12/11 11:02:23;;;;;;;50.10;21.05;;;;;;;;;;5040794;28;20041;-73
2022/12/11 11:04:51;;;;;;;54.58;21.60;;;;;;;;;;5045302;28;20069;-73
2022/12/11 11:07:20;;;;;;;51.08;21.75;;;;;;;;;;5044329;28;20510;-73
2022/12/11 11:09:48;;;;;;;52.50;21.30;;;;;;;;;;5042687;28;20048;-72
2022/12/11 11:12:20;;;;;;;53.47;22.65;;;;;;;;;;5044507;28;20114;-73
2022/12/11 11:14:47;;;;;;;55.60;22.63;;;;;;;;;;5041046;28;20052;-73
2022/12/11 11:17:15;;;;;;;58.03;24.13;;;;;;;;;;5040083;28;20053;-73
2022/12/11 11:19:46;;;;;;;64.18;24.27;;;;;;;;;;5035788;28;20060;-73
2022/12/11 11:22:15;;;;;;;57.03;23.75;;;;;;;;;;5044345;28;20500;-74
2022/12/11 11:24:44;;;;;;;70.85;27.55;;;;;;;;;;5046455;28;20071;-73
2022/12/11 11:27:13;;;;;;;67.47;25.17;;;;;;;;;;5050778;28;20041;-73
2022/12/11 11:29:42;;;;;;;72.25;27.70;;;;;;;;;;5048494;28;20107;-73
2022/12/11 11:32:18;;;;;;;58.75;25.02;;;;;;;;;;5049037;28;20053;-73
2022/12/11 11:34:45;;;;;;;56.42;24.02;;;;;;;;;;5041649;28;20057;-73
2022/12/11 11:37:23;;;;;;;55.25;24.20;;;;;;;;;;5041776;28;20051;-73
2022/12/11 11:39:51;;;;;;;56.90;25.30;;;;;;;;;;5033518;28;20068;-73
2022/12/11 11:42:19;;;;;;;62.33;25.23;;;;;;;;;;5037803;28;20057;-73
2022/12/11 11:44:52;;;;;;;63.83;26.42;;;;;;;;;;5044272;28;20056;-73
2022/12/11 11:47:23;;;;;;;56.05;26.35;;;;;;;;;;5036094;28;20051;-73
2022/12/11 11:49:53;;;;;;;55.10;25.00;;;;;;;;;;5042549;28;20053;-73
2022/12/11 11:52:25;;;;;;;55.05;23.65;;;;;;;;;;5046196;28;20052;-73
2022/12/11 11:54:56;;;;;;;50.75;24.08;;;;;;;;;;5058713;28;20052;-73
2022/12/11 11:57:27;;;;;;;51.38;23.95;;;;;;;;;;5043858;28;20049;-73
2022/12/11 11:59:58;;;;;;;54.20;24.80;;;;;;;;;;5037709;28;20735;-73
2022/12/11 12:02:26;;;;;;;50.85;23.20;;;;;;;;;;5042888;28;20101;-73
2022/12/11 12:04:53;;;;;;;49.15;24.17;;;;;;;;;;5034689;28;20053;-73
2022/12/11 12:07:30;;;;;;;49.50;23.92;;;;;;;;;;5043100;28;20057;-73
2022/12/11 12:10:01;;;;;;;48.63;24.23;;;;;;;;;;5038045;28;20046;-72
2022/12/11 12:12:35;;;;;;;51.28;24.42;;;;;;;;;;5037704;28;20063;-73
2022/12/11 12:15:10;;;;;;;56.38;24.52;;;;;;;;;;5039294;28;20080;-73
2022/12/11 12:17:45;;;;;;;48.92;23.92;;;;;;;;;;5040058;28;20408;-73
2022/12/11 12:20:17;;;;;;;52.53;24.90;;;;;;;;;;5040339;28;20055;-73
2022/12/11 12:22:52;;;;;;;47.38;24.25;;;;;;;;;;5041921;28;20107;-73
2022/12/11 12:25:22;;;;;;;45.03;22.50;;;;;;;;;;5038698;28;20053;-73
2022/12/11 12:27:54;;;;;;;53.72;25.08;;;;;;;;;;5035763;28;20053;-73
2022/12/11 12:30:23;;;;;;;47.85;22.75;;;;;;;;;;5035822;28;20056;-73
2022/12/11 12:32:55;;;;;;;47.55;23.67;;;;;;;;;;5042386;28;20045;-73
2022/12/11 12:35:27;;;;;;;43.03;22.70;;;;;;;;;;5040807;28;20411;-73
2022/12/11 12:37:58;;;;;;;46.30;23.35;;;;;;;;;;5040485;28;20064;-73
2022/12/11 12:40:29;;;;;;;44.58;23.67;;;;;;;;;;5034693;28;20053;-73
2022/12/11 12:43:00;;;;;;;48.08;23.02;;;;;;;;;;5035434;28;20061;-73
2022/12/11 12:45:32;;;;;;;46.35;24.08;;;;;;;;;;5041739;28;20070;-73
2022/12/11 12:48:00;;;;;;;51.63;24.42;;;;;;;;;;5050958;28;20056;-73
2022/12/11 12:50:30;;;;;;;41.55;22.45;;;;;;;;;;5048814;28;20056;-73
2022/12/11 12:52:57;;;;;;;46.70;24.02;;;;;;;;;;5069021;28;20044;-73
2022/12/11 12:55:27;;;;;;;45.35;23.52;;;;;;;;;;5063337;28;20063;-72
2022/12/11 12:57:56;;;;;;;45.38;22.90;;;;;;;;;;5057136;28;20056;-73
2022/12/11 13:00:32;;;;;;;49.63;23.63;;;;;;;;;;5049630;28;20041;-73
2022/12/11 13:03:01;;;;;;;43.33;22.25;;;;;;;;;;5048396;28;20134;-74
2022/12/11 13:05:30;;;;;;;44.72;24.10;;;;;;;;;;5044644;28;20044;-73
2022/12/11 13:07:57;;;;;;;44.08;22.50;;;;;;;;;;5050517;28;20055;-73
2022/12/11 13:10:26;;;;;;;44.42;23.48;;;;;;;;;;5049725;28;20056;-72
2022/12/11 13:12:54;;;;;;;46.00;23.02;;;;;;;;;;5046480;28;20094;-73
2022/12/11 13:15:25;;;;;;;47.90;23.23;;;;;;;;;;5066230;28;20059;-72
2022/12/11 13:17:54;;;;;;;49.00;23.48;;;;;;;;;;5063209;28;20072;-73
2022/12/11 13:20:22;;;;;;;48.58;24.52;;;;;;;;;;5042214;28;20067;-73
2022/12/11 13:22:52;;;;;;;49.20;23.92;;;;;;;;;;5043196;28;20056;-72
2022/12/11 13:25:27;;;;;;;48.00;24.40;;;;;;;;;;5052579;28;20056;-73
2022/12/11 13:28:04;;;;;;;44.45;22.45;;;;;;;;;;5046052;28;20059;-74
2022/12/11 13:30:33;;;;;;;38.88;21.95;;;;;;;;;;5045076;28;20056;-74
2022/12/11 13:33:04;;;;;;;44.05;23.60;;;;;;;;;;5044151;28;20665;-72
2022/12/11 13:35:33;;;;;;;45.92;23.80;;;;;;;;;;5066344;28;20048;-73
2022/12/11 13:38:03;;;;;;;44.20;22.83;;;;;;;;;;5070361;28;20125;-73
2022/12/11 13:40:34;;;;;;;46.20;23.10;;;;;;;;;;5041227;28;20063;-73
2022/12/11 13:43:04;;;;;;;41.58;21.33;;;;;;;;;;5042206;28;20076;-73
2022/12/11 13:45:35;;;;;;;44.03;21.90;;;;;;;;;;5050735;28;20056;-73
2022/12/11 13:48:04;;;;;;;48.17;23.55;;;;;;;;;;5041017;28;20052;-73
2022/12/11 13:50:33;;;;;;;46.30;22.85;;;;;;;;;;5065292;28;20074;-73
2022/12/11 13:53:01;;;;;;;47.08;21.90;;;;;;;;;;5048765;28;20779;-73
2022/12/11 13:55:29;;;;;;;43.75;22.73;;;;;;;;;;5042099;28;20063;-73
2022/12/11 13:57:57;;;;;;;44.90;23.15;;;;;;;;;;5045653;28;20056;-73
2022/12/11 14:00:25;;;;;;;48.15;22.75;;;;;;;;;;5047747;28;20056;-73
2022/12/11 14:02:53;;;;;;;45.42;21.67;;;;;;;;;;5045917;28;20057;-73
2022/12/11 14:05:22;;;;;;;39.67;21.17;;;;;;;;;;5050037;28;20062;-73
2022/12/11 14:07:50;;;;;;;43.72;21.52;;;;;;;;;;5047843;28;20087;-73
2022/12/11 14:10:19;;;;;;;43.80;21.27;;;;;;;;;;5045000;28;20045;-73
2022/12/11 14:12:48;;;;;;;39.00;21.05;;;;;;;;;;5033889;28;20086;-73
2022/12/11 14:15:15;;;;;;;41.70;21.40;;;;;;;;;;5066082;28;20049;-73
2022/12/11 14:17:44;;;;;;;41.42;19.88;;;;;;;;;;5054873;28;20049;-73
2022/12/11 14:20:16;;;;;;;38.17;20.23;;;;;;;;;;5044788;28;20048;-73
2022/12/11 14:22:45;;;;;;;40.53;19.75;;;;;;;;;;5062943;28;20059;-73
2022/12/11 14:25:23;;;;;;;45.95;23.58;;;;;;;;;;5066025;28;20056;-72
2022/12/11 14:27:52;;;;;;;42.88;20.83;;;;;;;;;;5040447;28;20169;-73